createdAt,value
2018-04-27T00:00:51.544Z,54.71
2018-04-27T00:01:54.177Z,54.73
2018-04-27T00:02:56.743Z,54.73
2018-04-27T00:03:59.284Z,54.74
2018-04-27T00:05:01.867Z,54.73
2018-04-27T00:06:04.443Z,54.65
2018-04-27T00:07:07.021Z,54.73
2018-04-27T00:08:09.593Z,54.76
2018-04-27T00:09:12.350Z,54.81
2018-04-27T00:10:14.927Z,54.84
2018-04-27T00:11:17.481Z,54.82
2018-04-27T00:12:20.113Z,54.78
2018-04-27T00:13:22.795Z,54.78
2018-04-27T00:14:25.335Z,54.82
2018-04-27T00:15:27.957Z,54.94
2018-04-27T00:16:30.511Z,55.04
2018-04-27T00:17:33.137Z,55.11
2018-04-27T00:18:35.693Z,55.12
2018-04-27T00:19:38.280Z,55.13
2018-04-27T00:20:40.851Z,55.20
2018-04-27T00:21:43.406Z,55.23
2018-04-27T00:22:45.977Z,55.26
2018-04-27T00:23:48.545Z,55.31
2018-04-27T00:24:51.101Z,55.34
2018-04-27T00:25:53.666Z,55.35
2018-04-27T00:26:56.208Z,55.28
2018-04-27T00:27:58.747Z,55.26
2018-04-27T00:29:01.299Z,55.30
2018-04-27T00:30:03.837Z,55.29
2018-04-27T00:31:06.518Z,55.32
2018-04-27T00:32:09.164Z,55.38
2018-04-27T00:33:11.832Z,55.40
2018-04-27T00:34:14.494Z,55.41
2018-04-27T00:35:17.067Z,55.41
2018-04-27T00:36:19.652Z,55.39
2018-04-27T00:37:22.206Z,55.35
2018-04-27T00:38:24.748Z,55.34
2018-04-27T00:39:27.307Z,55.33
2018-04-27T00:40:29.971Z,55.28
2018-04-27T00:41:32.612Z,55.31
2018-04-27T00:42:35.167Z,55.35
2018-04-27T00:43:37.715Z,55.35
2018-04-27T00:44:40.268Z,55.38
2018-04-27T00:45:42.862Z,55.32
2018-04-27T00:46:45.416Z,55.31
2018-04-27T00:47:47.974Z,55.26
2018-04-27T00:48:50.526Z,55.22
2018-04-27T00:49:53.113Z,55.24
2018-04-27T00:50:55.673Z,55.23
2018-04-27T00:51:58.321Z,55.17
2018-04-27T00:53:12.621Z,55.17
2018-04-27T00:54:15.175Z,55.18
2018-04-27T00:55:17.742Z,55.27
2018-04-27T00:56:20.304Z,55.28
2018-04-27T00:57:22.911Z,55.33
2018-04-27T00:58:25.462Z,55.30
2018-04-27T00:59:28.008Z,55.30
2018-04-27T01:00:30.556Z,55.33
2018-04-27T01:01:33.131Z,55.37
2018-04-27T01:02:35.697Z,55.44
2018-04-27T01:03:38.265Z,55.45
2018-04-27T01:04:40.818Z,55.44
2018-04-27T01:05:43.477Z,55.39
2018-04-27T01:06:46.025Z,55.41
2018-04-27T01:07:48.595Z,55.56
2018-04-27T01:08:51.177Z,55.51
2018-04-27T01:09:53.790Z,55.51
2018-04-27T01:10:56.384Z,55.48
2018-04-27T01:11:58.957Z,55.41
2018-04-27T01:13:01.520Z,55.35
2018-04-27T01:14:04.179Z,55.32
2018-04-27T01:15:06.847Z,55.27
2018-04-27T01:16:09.400Z,55.30
2018-04-27T01:17:11.954Z,55.36
2018-04-27T01:18:14.522Z,55.34
2018-04-27T01:19:17.189Z,55.29
2018-04-27T01:20:19.745Z,55.27
2018-04-27T01:21:22.329Z,55.32
2018-04-27T01:22:24.882Z,55.33
2018-04-27T01:23:27.518Z,55.33
2018-04-27T01:24:30.070Z,55.30
2018-04-27T01:25:32.649Z,55.34
2018-04-27T01:26:35.210Z,55.42
2018-04-27T01:27:37.781Z,55.40
2018-04-27T01:28:40.329Z,55.42
2018-04-27T01:29:42.883Z,55.40
2018-04-27T01:30:45.553Z,55.38
2018-04-27T01:31:48.092Z,55.35
2018-04-27T01:32:50.646Z,55.38
2018-04-27T01:33:53.213Z,55.38
2018-04-27T01:34:55.772Z,55.43
2018-04-27T01:35:58.361Z,55.45
2018-04-27T01:37:00.921Z,55.44
2018-04-27T01:38:03.466Z,55.45
2018-04-27T01:39:06.020Z,55.44
2018-04-27T01:40:08.604Z,55.46
2018-04-27T01:41:11.159Z,55.46
2018-04-27T01:42:13.816Z,55.46
2018-04-27T01:43:16.368Z,55.50
2018-04-27T01:44:18.942Z,55.50
2018-04-27T01:45:21.500Z,55.50
2018-04-27T01:46:24.056Z,55.48
2018-04-27T01:47:26.695Z,55.46
2018-04-27T01:48:29.247Z,55.49
2018-04-27T01:49:31.806Z,55.64
2018-04-27T01:50:34.379Z,55.88
2018-04-27T01:51:36.925Z,55.95
2018-04-27T01:52:39.482Z,55.88
2018-04-27T01:53:42.020Z,55.77
2018-04-27T01:54:44.642Z,55.71
2018-04-27T01:55:47.198Z,55.65
2018-04-27T01:56:49.756Z,55.54
2018-04-27T01:57:52.303Z,55.53
2018-04-27T01:58:54.863Z,55.52
2018-04-27T01:59:57.412Z,55.48
2018-04-27T02:00:59.982Z,55.50
2018-04-27T02:02:02.542Z,55.50
2018-04-27T02:03:05.093Z,55.49
2018-04-27T02:04:07.636Z,55.49
2018-04-27T02:05:10.228Z,55.43
2018-04-27T02:06:12.798Z,55.44
2018-04-27T02:07:15.344Z,55.45
2018-04-27T02:08:17.990Z,55.42
2018-04-27T02:09:20.532Z,55.39
2018-04-27T02:10:23.076Z,55.38
2018-04-27T02:11:25.600Z,55.41
2018-04-27T02:12:28.105Z,55.40
2018-04-27T02:13:30.591Z,55.42
2018-04-27T02:14:33.074Z,55.37
2018-04-27T02:15:35.565Z,55.37
2018-04-27T02:16:38.049Z,55.40
2018-04-27T02:17:40.568Z,55.44
2018-04-27T02:18:43.041Z,55.43
2018-04-27T02:19:45.541Z,55.43
2018-04-27T02:20:48.031Z,55.41
2018-04-27T02:21:50.502Z,55.42
2018-04-27T02:22:53.021Z,55.41
2018-04-27T02:23:55.535Z,55.41
2018-04-27T02:24:58.067Z,55.46
2018-04-27T02:26:00.564Z,55.50
2018-04-27T02:27:03.035Z,55.47
2018-04-27T02:28:05.517Z,55.45
2018-04-27T02:29:08.022Z,55.46
2018-04-27T02:30:10.505Z,55.57
2018-04-27T02:31:12.974Z,55.61
2018-04-27T02:32:15.447Z,55.63
2018-04-27T02:33:17.914Z,55.63
2018-04-27T02:34:20.431Z,55.63
2018-04-27T02:35:22.945Z,55.60
2018-04-27T02:36:25.506Z,55.62
2018-04-27T02:37:28.066Z,55.67
2018-04-27T02:38:30.577Z,55.72
2018-04-27T02:39:33.154Z,55.74
2018-04-27T02:40:35.645Z,55.75
2018-04-27T02:41:38.148Z,55.77
2018-04-27T02:42:40.639Z,55.80
2018-04-27T02:43:43.144Z,55.82
2018-04-27T02:44:45.615Z,55.89
2018-04-27T02:45:48.090Z,55.90
2018-04-27T02:46:50.562Z,55.94
2018-04-27T02:47:53.057Z,55.90
2018-04-27T02:48:55.584Z,55.84
2018-04-27T02:49:58.068Z,55.79
2018-04-27T02:51:00.559Z,55.81
2018-04-27T02:52:03.055Z,55.81
2018-04-27T02:53:05.592Z,55.84
2018-04-27T02:54:08.202Z,55.89
2018-04-27T02:55:10.726Z,55.98
2018-04-27T02:56:13.227Z,56.03
2018-04-27T02:57:15.785Z,56.05
2018-04-27T02:58:18.345Z,56.04
2018-04-27T02:59:20.833Z,56.04
2018-04-27T03:00:23.310Z,56.04
2018-04-27T03:01:25.802Z,56.01
2018-04-27T03:02:28.275Z,55.99
2018-04-27T03:03:30.762Z,56.05
2018-04-27T03:04:33.267Z,56.09
2018-04-27T03:05:35.762Z,56.13
2018-04-27T03:06:38.235Z,56.12
2018-04-27T03:07:40.717Z,56.10
2018-04-27T03:08:43.222Z,56.02
2018-04-27T03:09:45.725Z,56.01
2018-04-27T03:10:48.212Z,55.97
2018-04-27T03:11:50.704Z,55.93
2018-04-27T03:12:53.193Z,55.89
2018-04-27T03:13:55.702Z,55.89
2018-04-27T03:14:58.216Z,55.93
2018-04-27T03:16:00.692Z,56.00
2018-04-27T03:17:03.177Z,56.08
2018-04-27T03:18:05.684Z,56.13
2018-04-27T03:19:08.197Z,56.12
2018-04-27T03:20:10.661Z,56.11
2018-04-27T03:21:13.134Z,56.12
2018-04-27T03:22:15.620Z,56.10
2018-04-27T03:23:18.112Z,56.08
2018-04-27T03:24:20.613Z,56.16
2018-04-27T03:25:23.100Z,56.23
2018-04-27T03:26:25.571Z,56.29
2018-04-27T03:27:28.044Z,56.31
2018-04-27T03:28:30.544Z,56.31
2018-04-27T03:29:33.104Z,56.31
2018-04-27T03:30:35.579Z,56.35
2018-04-27T03:31:38.122Z,56.34
2018-04-27T03:32:40.680Z,56.31
2018-04-27T03:33:43.173Z,56.29
2018-04-27T03:34:45.677Z,56.27
2018-04-27T03:35:48.177Z,56.29
2018-04-27T03:36:50.654Z,56.29
2018-04-27T03:37:53.242Z,56.27
2018-04-27T03:38:55.726Z,56.29
2018-04-27T03:39:58.232Z,56.30
2018-04-27T03:41:00.716Z,56.30
2018-04-27T03:42:03.285Z,56.29
2018-04-27T03:43:05.872Z,56.30
2018-04-27T03:44:08.379Z,56.29
2018-04-27T03:45:10.971Z,56.27
2018-04-27T03:46:13.457Z,56.27
2018-04-27T03:47:15.934Z,56.25
2018-04-27T03:48:18.420Z,56.26
2018-04-27T03:49:20.905Z,56.26
2018-04-27T03:50:23.412Z,56.25
2018-04-27T03:51:25.897Z,56.27
2018-04-27T03:52:28.402Z,56.27
2018-04-27T03:53:31.065Z,56.28
2018-04-27T03:54:33.544Z,56.28
2018-04-27T03:55:36.076Z,56.29
2018-04-27T03:56:38.561Z,56.31
2018-04-27T03:57:41.035Z,56.32
2018-04-27T03:58:43.719Z,56.31
2018-04-27T03:59:57.897Z,56.28
2018-04-27T04:01:12.094Z,56.22
2018-04-27T04:02:26.498Z,56.19
2018-04-27T04:03:40.737Z,56.19
2018-04-27T04:04:54.974Z,56.20
2018-04-27T04:05:57.473Z,56.19
2018-04-27T04:06:59.956Z,56.22
2018-04-27T04:08:02.499Z,56.26
2018-04-27T04:09:05.056Z,56.31
2018-04-27T04:10:07.541Z,56.29
2018-04-27T04:11:10.076Z,56.23
2018-04-27T04:12:12.564Z,56.17
2018-04-27T04:13:15.050Z,56.17
2018-04-27T04:14:17.546Z,56.18
2018-04-27T04:15:20.047Z,56.20
2018-04-27T04:16:22.552Z,56.19
2018-04-27T04:17:25.019Z,56.16
2018-04-27T04:18:27.505Z,56.11
2018-04-27T04:19:29.996Z,56.08
2018-04-27T04:20:32.470Z,56.07
2018-04-27T04:21:34.991Z,56.20
2018-04-27T04:22:37.477Z,56.44
2018-04-27T04:23:39.954Z,56.57
2018-04-27T04:24:42.468Z,56.59
2018-04-27T04:25:44.957Z,56.59
2018-04-27T04:26:47.478Z,56.49
2018-04-27T04:27:49.972Z,56.47
2018-04-27T04:28:52.461Z,56.49
2018-04-27T04:29:54.953Z,56.46
2018-04-27T04:30:57.440Z,56.50
2018-04-27T04:31:59.934Z,56.47
2018-04-27T04:33:02.422Z,56.41
2018-04-27T04:34:04.923Z,56.39
2018-04-27T04:35:07.402Z,56.37
2018-04-27T04:36:09.904Z,56.33
2018-04-27T04:37:12.394Z,56.31
2018-04-27T04:38:15.068Z,56.32
2018-04-27T04:39:17.509Z,56.35
2018-04-27T04:40:20.121Z,56.39
2018-04-27T04:41:22.631Z,56.45
2018-04-27T04:42:25.123Z,56.52
2018-04-27T04:43:27.634Z,56.49
2018-04-27T04:44:30.240Z,56.52
2018-04-27T04:45:32.733Z,56.58
2018-04-27T04:46:35.221Z,56.60
2018-04-27T04:47:37.716Z,56.57
2018-04-27T04:48:40.299Z,56.55
2018-04-27T04:49:42.799Z,56.58
2018-04-27T04:50:45.315Z,56.65
2018-04-27T04:51:47.870Z,56.67
2018-04-27T04:52:50.384Z,56.70
2018-04-27T04:53:52.869Z,56.69
2018-04-27T04:54:55.381Z,56.62
2018-04-27T04:55:57.866Z,56.53
2018-04-27T04:57:00.361Z,56.52
2018-04-27T04:58:02.847Z,56.57
2018-04-27T04:59:05.383Z,56.65
2018-04-27T05:00:07.890Z,56.72
2018-04-27T05:01:10.379Z,56.71
2018-04-27T05:02:12.961Z,56.81
2018-04-27T05:03:15.520Z,56.88
2018-04-27T05:04:18.027Z,56.93
2018-04-27T05:05:20.543Z,56.89
2018-04-27T05:06:23.099Z,56.85
2018-04-27T05:07:25.601Z,56.82
2018-04-27T05:08:28.113Z,56.84
2018-04-27T05:09:30.582Z,56.74
2018-04-27T05:10:33.067Z,56.69
2018-04-27T05:11:35.599Z,56.54
2018-04-27T05:12:38.103Z,56.55
2018-04-27T05:13:40.599Z,56.70
2018-04-27T05:14:43.089Z,56.76
2018-04-27T05:15:45.595Z,56.86
2018-04-27T05:16:48.106Z,56.72
2018-04-27T05:17:50.600Z,56.60
2018-04-27T05:18:53.143Z,56.68
2018-04-27T05:19:55.154Z,56.62
2018-04-27T05:20:57.714Z,56.59
2018-04-27T05:22:00.275Z,56.56
2018-04-27T05:23:02.832Z,56.57
2018-04-27T05:24:05.390Z,56.62
2018-04-27T05:25:07.880Z,56.72
2018-04-27T05:26:10.370Z,56.80
2018-04-27T05:27:12.862Z,56.81
2018-04-27T05:28:15.364Z,56.77
2018-04-27T05:29:17.881Z,56.76
2018-04-27T05:30:20.367Z,56.72
2018-04-27T05:31:25.363Z,56.71
2018-04-27T05:32:27.897Z,56.86
2018-04-27T05:33:30.485Z,56.99
2018-04-27T05:34:32.984Z,57.06
2018-04-27T05:35:35.549Z,57.14
2018-04-27T05:36:38.046Z,57.18
2018-04-27T05:37:40.537Z,57.15
2018-04-27T05:38:43.021Z,57.12
2018-04-27T05:39:55.341Z,57.16
2018-04-27T05:40:57.924Z,57.24
2018-04-27T05:42:00.407Z,57.25
2018-04-27T05:43:02.883Z,57.30
2018-04-27T05:44:05.365Z,57.31
2018-04-27T05:45:07.858Z,57.34
2018-04-27T05:46:10.337Z,57.36
2018-04-27T05:47:12.819Z,57.38
2018-04-27T05:48:15.427Z,57.42
2018-04-27T05:49:17.890Z,57.43
2018-04-27T05:50:20.437Z,57.44
2018-04-27T05:51:22.948Z,57.41
2018-04-27T05:52:25.455Z,57.41
2018-04-27T05:53:27.926Z,57.19
2018-04-27T05:54:30.427Z,56.91
2018-04-27T05:55:33.002Z,56.45
2018-04-27T05:56:35.504Z,55.72
2018-04-27T05:57:37.998Z,54.88
2018-04-27T05:58:40.521Z,54.62
2018-04-27T05:59:43.081Z,54.00
2018-04-27T06:00:45.599Z,54.11
2018-04-27T06:01:48.111Z,53.95
2018-04-27T06:02:50.609Z,53.87
2018-04-27T06:04:04.793Z,53.71
2018-04-27T06:05:07.297Z,53.49
2018-04-27T06:06:09.786Z,53.33
2018-04-27T06:07:12.269Z,52.78
2018-04-27T06:08:14.810Z,52.48
2018-04-27T06:09:17.301Z,52.46
2018-04-27T06:10:19.985Z,52.51
2018-04-27T06:11:22.521Z,52.60
2018-04-27T06:12:25.031Z,52.63
2018-04-27T06:13:27.526Z,52.68
2018-04-27T06:14:30.030Z,52.71
2018-04-27T06:15:32.521Z,52.79
2018-04-27T06:16:35.027Z,52.88
2018-04-27T06:17:37.513Z,52.96
2018-04-27T06:18:40.122Z,52.99
2018-04-27T06:19:42.591Z,53.03
2018-04-27T06:20:45.059Z,53.06
2018-04-27T06:21:47.579Z,53.10
2018-04-27T06:22:50.064Z,53.13
2018-04-27T06:23:52.570Z,53.21
2018-04-27T06:24:55.058Z,53.24
2018-04-27T06:25:57.564Z,53.28
2018-04-27T06:27:00.081Z,53.30
2018-04-27T06:28:02.560Z,53.34
2018-04-27T06:29:05.068Z,53.37
2018-04-27T06:30:07.559Z,53.41
2018-04-27T06:31:10.039Z,53.44
2018-04-27T06:32:12.540Z,53.47
2018-04-27T06:33:15.025Z,53.47
2018-04-27T06:34:17.535Z,53.51
2018-04-27T06:35:20.010Z,53.56
2018-04-27T06:36:22.493Z,53.59
2018-04-27T06:37:25.020Z,53.61
2018-04-27T06:38:27.545Z,53.63
2018-04-27T06:39:30.033Z,53.64
2018-04-27T06:40:32.512Z,53.66
2018-04-27T06:41:35.010Z,53.68
2018-04-27T06:42:37.517Z,53.72
2018-04-27T06:43:39.988Z,53.76
2018-04-27T06:44:42.462Z,53.77
2018-04-27T06:45:44.964Z,53.79
2018-04-27T06:46:47.449Z,53.81
2018-04-27T06:47:49.995Z,53.82
2018-04-27T06:48:52.469Z,53.83
2018-04-27T06:49:54.960Z,53.85
2018-04-27T06:50:57.467Z,53.86
2018-04-27T06:51:59.959Z,53.86
2018-04-27T06:53:02.464Z,53.86
2018-04-27T06:54:04.967Z,53.90
2018-04-27T06:55:07.494Z,53.90
2018-04-27T06:56:10.001Z,53.91
2018-04-27T06:57:12.507Z,53.92
2018-04-27T06:58:15.013Z,53.91
2018-04-27T06:59:17.630Z,53.91
2018-04-27T07:00:20.093Z,53.91
2018-04-27T07:01:22.582Z,53.91
2018-04-27T07:02:25.072Z,53.92
2018-04-27T07:03:27.568Z,53.93
2018-04-27T07:04:30.052Z,53.94
2018-04-27T07:05:32.558Z,53.94
2018-04-27T07:06:35.026Z,53.94
2018-04-27T07:07:37.578Z,53.94
2018-04-27T07:08:40.136Z,53.95
2018-04-27T07:09:42.621Z,53.96
2018-04-27T07:10:45.127Z,53.96
2018-04-27T07:11:47.631Z,53.97
2018-04-27T07:12:50.102Z,53.97
2018-04-27T07:13:52.631Z,53.97
2018-04-27T07:14:55.122Z,53.97
2018-04-27T07:15:57.620Z,53.96
2018-04-27T07:17:00.202Z,53.95
2018-04-27T07:18:02.616Z,53.96
2018-04-27T07:19:05.376Z,53.97
2018-04-27T07:20:07.847Z,53.98
2018-04-27T07:21:10.347Z,53.98
2018-04-27T07:22:12.822Z,53.98
2018-04-27T07:23:15.319Z,53.97
2018-04-27T07:24:17.806Z,53.96
2018-04-27T07:25:20.282Z,53.96
2018-04-27T07:26:22.763Z,53.96
2018-04-27T07:27:25.271Z,53.97
2018-04-27T07:28:27.760Z,53.97
2018-04-27T07:29:30.247Z,53.97
2018-04-27T07:30:32.737Z,53.95
2018-04-27T07:31:35.228Z,53.94
2018-04-27T07:32:37.713Z,53.93
2018-04-27T07:33:40.210Z,53.94
2018-04-27T07:34:42.717Z,53.95
2018-04-27T07:35:45.208Z,53.96
2018-04-27T07:36:47.678Z,53.96
2018-04-27T07:37:50.152Z,53.98
2018-04-27T07:38:52.655Z,53.97
2018-04-27T07:39:55.171Z,53.98
2018-04-27T07:40:57.644Z,53.98
2018-04-27T07:42:00.146Z,53.95
2018-04-27T07:43:02.672Z,53.93
2018-04-27T07:44:05.191Z,53.93
2018-04-27T07:45:07.683Z,53.92
2018-04-27T07:46:10.226Z,53.92
2018-04-27T07:47:12.710Z,53.91
2018-04-27T07:48:15.182Z,53.91
2018-04-27T07:49:17.757Z,53.91
2018-04-27T07:50:20.268Z,53.90
2018-04-27T07:51:22.738Z,53.89
2018-04-27T07:52:25.245Z,53.89
2018-04-27T07:53:27.733Z,53.89
2018-04-27T07:54:30.259Z,53.88
2018-04-27T07:55:32.764Z,53.87
2018-04-27T07:56:35.268Z,53.87
2018-04-27T07:57:37.757Z,53.87
2018-04-27T07:58:40.245Z,53.87
2018-04-27T07:59:42.727Z,53.85
2018-04-27T08:00:45.218Z,53.84
2018-04-27T08:01:47.701Z,53.84
2018-04-27T08:02:50.206Z,53.84
2018-04-27T08:03:52.696Z,53.82
2018-04-27T08:04:55.200Z,53.83
2018-04-27T08:05:57.722Z,53.81
2018-04-27T08:07:00.221Z,53.80
2018-04-27T08:08:02.721Z,53.80
2018-04-27T08:09:06.766Z,53.79
2018-04-27T08:10:09.271Z,53.78
2018-04-27T08:11:11.777Z,53.77
2018-04-27T08:12:14.261Z,53.75
2018-04-27T08:13:16.746Z,53.76
2018-04-27T08:14:19.240Z,53.76
2018-04-27T08:15:21.743Z,53.76
2018-04-27T08:16:24.236Z,53.75
2018-04-27T08:17:26.724Z,53.72
2018-04-27T08:18:29.222Z,53.71
2018-04-27T08:19:31.708Z,53.70
2018-04-27T08:20:34.200Z,53.67
2018-04-27T08:21:36.783Z,53.66
2018-04-27T08:22:39.287Z,53.66
2018-04-27T08:23:41.770Z,53.66
2018-04-27T08:24:44.262Z,53.64
2018-04-27T08:25:46.792Z,53.63
2018-04-27T08:26:49.294Z,53.63
2018-04-27T08:27:55.263Z,53.62
2018-04-27T08:29:03.169Z,53.60
2018-04-27T08:30:05.655Z,53.58
2018-04-27T08:31:08.184Z,53.55
2018-04-27T08:32:10.720Z,53.55
2018-04-27T08:33:13.192Z,53.57
2018-04-27T08:34:15.800Z,53.57
2018-04-27T08:35:18.358Z,53.57
2018-04-27T08:36:20.844Z,53.56
2018-04-27T08:37:23.377Z,53.54
2018-04-27T08:38:25.916Z,53.53
2018-04-27T08:39:28.431Z,53.52
2018-04-27T08:40:30.919Z,53.52
2018-04-27T08:41:33.423Z,53.51
2018-04-27T08:42:35.911Z,53.50
2018-04-27T08:43:38.398Z,53.49
2018-04-27T08:44:40.890Z,53.49
2018-04-27T08:45:43.369Z,53.47
2018-04-27T08:46:45.857Z,53.46
2018-04-27T08:47:48.359Z,53.45
2018-04-27T08:48:50.834Z,53.45
2018-04-27T08:49:53.385Z,53.45
2018-04-27T08:50:57.777Z,53.43
2018-04-27T08:52:00.250Z,53.41
2018-04-27T08:53:02.760Z,53.38
2018-04-27T08:54:05.277Z,53.38
2018-04-27T08:55:07.751Z,53.35
2018-04-27T08:56:10.256Z,53.34
2018-04-27T08:57:12.737Z,53.33
2018-04-27T08:58:15.247Z,53.33
2018-04-27T08:59:17.760Z,53.32
2018-04-27T09:00:20.243Z,53.30
2018-04-27T09:01:22.772Z,53.29
2018-04-27T09:02:25.336Z,53.28
2018-04-27T09:03:27.945Z,53.27
2018-04-27T09:04:30.452Z,53.25
2018-04-27T09:05:32.941Z,53.24
2018-04-27T09:06:35.429Z,53.22
2018-04-27T09:07:37.939Z,53.20
2018-04-27T09:08:40.464Z,53.18
2018-04-27T09:09:42.956Z,53.19
2018-04-27T09:10:45.445Z,53.18
2018-04-27T09:11:47.926Z,53.17
2018-04-27T09:12:50.422Z,53.15
2018-04-27T09:13:52.902Z,53.17
2018-04-27T09:14:55.389Z,53.15
2018-04-27T09:15:57.888Z,53.14
2018-04-27T09:17:00.373Z,53.14
2018-04-27T09:18:02.875Z,53.12
2018-04-27T09:19:05.831Z,53.12
2018-04-27T09:20:08.319Z,53.12
2018-04-27T09:21:10.823Z,53.12
2018-04-27T09:22:13.313Z,53.11
2018-04-27T09:23:15.800Z,53.10
2018-04-27T09:24:18.304Z,53.09
2018-04-27T09:25:20.813Z,53.09
2018-04-27T09:26:23.300Z,53.08
2018-04-27T09:27:25.806Z,53.06
2018-04-27T09:28:28.292Z,53.05
2018-04-27T09:29:30.812Z,53.05
2018-04-27T09:30:33.330Z,53.03
2018-04-27T09:31:35.842Z,53.02
2018-04-27T09:32:38.341Z,53.00
2018-04-27T09:33:40.814Z,53.00
2018-04-27T09:34:43.311Z,53.00
2018-04-27T09:35:45.822Z,52.99
2018-04-27T09:36:48.314Z,52.96
2018-04-27T09:37:50.790Z,52.95
2018-04-27T09:38:53.320Z,52.94
2018-04-27T09:39:55.810Z,52.93
2018-04-27T09:40:58.388Z,52.92
2018-04-27T09:42:00.827Z,52.91
2018-04-27T09:43:03.294Z,52.91
2018-04-27T09:44:05.784Z,52.91
2018-04-27T09:45:08.294Z,52.89
2018-04-27T09:46:10.770Z,52.88
2018-04-27T09:47:13.276Z,52.87
2018-04-27T09:48:15.764Z,52.87
2018-04-27T09:49:18.242Z,52.86
2018-04-27T09:50:20.781Z,52.85
2018-04-27T09:51:23.252Z,52.84
2018-04-27T09:52:25.758Z,52.83
2018-04-27T09:53:28.253Z,52.83
2018-04-27T09:54:30.738Z,52.83
2018-04-27T09:55:33.234Z,52.82
2018-04-27T09:56:35.729Z,52.82
2018-04-27T09:57:38.217Z,52.80
2018-04-27T09:58:40.705Z,52.80
2018-04-27T09:59:43.197Z,52.79
2018-04-27T10:00:45.685Z,52.78
2018-04-27T10:01:48.195Z,52.77
2018-04-27T10:02:50.678Z,52.76
2018-04-27T10:03:53.160Z,52.75
2018-04-27T10:04:55.662Z,52.75
2018-04-27T10:05:58.169Z,52.75
2018-04-27T10:07:00.682Z,52.73
2018-04-27T10:08:03.176Z,52.72
2018-04-27T10:09:05.676Z,52.72
2018-04-27T10:10:08.158Z,52.71
2018-04-27T10:11:10.679Z,52.70
2018-04-27T10:12:13.187Z,52.69
2018-04-27T10:13:15.659Z,52.68
2018-04-27T10:14:18.144Z,52.67
2018-04-27T10:15:20.641Z,52.66
2018-04-27T10:16:23.165Z,52.65
2018-04-27T10:17:25.671Z,52.64
2018-04-27T10:18:28.164Z,52.64
2018-04-27T10:19:31.504Z,52.63
2018-04-27T10:20:34.091Z,52.58
2018-04-27T10:21:36.603Z,52.61
2018-04-27T10:22:39.117Z,52.61
2018-04-27T10:23:41.617Z,52.60
2018-04-27T10:24:44.096Z,52.60
2018-04-27T10:25:46.659Z,52.59
2018-04-27T10:26:49.165Z,52.58
2018-04-27T10:27:51.683Z,52.57
2018-04-27T10:28:54.177Z,52.57
2018-04-27T10:29:56.675Z,52.56
2018-04-27T10:30:59.164Z,52.54
2018-04-27T10:32:01.672Z,52.54
2018-04-27T10:33:04.193Z,52.54
2018-04-27T10:34:06.687Z,52.54
2018-04-27T10:35:09.178Z,52.54
2018-04-27T10:36:11.725Z,52.53
2018-04-27T10:37:14.212Z,52.52
2018-04-27T10:38:16.700Z,52.52
2018-04-27T10:39:19.190Z,52.52
2018-04-27T10:40:21.662Z,52.50
2018-04-27T10:41:24.148Z,52.52
2018-04-27T10:42:26.648Z,52.51
2018-04-27T10:43:29.129Z,52.49
2018-04-27T10:44:31.613Z,52.49
2018-04-27T10:45:34.173Z,52.50
2018-04-27T10:46:36.734Z,52.49
2018-04-27T10:47:39.238Z,52.48
2018-04-27T10:48:41.748Z,52.48
2018-04-27T10:49:44.237Z,52.47
2018-04-27T10:50:46.706Z,52.47
2018-04-27T10:51:49.243Z,52.46
2018-04-27T10:52:51.738Z,52.44
2018-04-27T10:53:54.215Z,52.44
2018-04-27T10:54:56.804Z,52.44
2018-04-27T10:55:59.369Z,52.43
2018-04-27T10:57:01.921Z,52.43
2018-04-27T10:58:04.395Z,52.42
2018-04-27T10:59:06.949Z,52.42
2018-04-27T11:00:09.501Z,52.42
2018-04-27T11:01:12.064Z,52.41
2018-04-27T11:02:14.564Z,52.40
2018-04-27T11:03:17.165Z,52.39
2018-04-27T11:04:19.593Z,52.38
2018-04-27T11:05:22.108Z,52.37
2018-04-27T11:06:24.659Z,52.36
2018-04-27T11:07:27.169Z,52.34
2018-04-27T11:08:29.677Z,52.34
2018-04-27T11:09:32.151Z,52.33
2018-04-27T11:10:34.632Z,52.34
2018-04-27T11:11:37.141Z,52.33
2018-04-27T11:12:39.633Z,52.33
2018-04-27T11:13:42.121Z,52.32
2018-04-27T11:14:44.600Z,52.32
2018-04-27T11:15:47.085Z,52.32
2018-04-27T11:16:49.735Z,52.32
2018-04-27T11:17:52.096Z,52.32
2018-04-27T11:18:54.566Z,52.32
2018-04-27T11:19:57.081Z,52.31
2018-04-27T11:20:59.560Z,52.32
2018-04-27T11:22:02.063Z,52.31
2018-04-27T11:23:04.561Z,52.31
2018-04-27T11:24:07.152Z,52.30
2018-04-27T11:25:09.645Z,52.30
2018-04-27T11:26:12.135Z,52.29
2018-04-27T11:27:14.736Z,52.28
2018-04-27T11:28:17.221Z,52.27
2018-04-27T11:29:19.754Z,52.26
2018-04-27T11:30:22.266Z,52.26
2018-04-27T11:31:24.775Z,52.26
2018-04-27T11:32:27.280Z,52.25
2018-04-27T11:33:29.787Z,52.25
2018-04-27T11:34:32.285Z,52.24
2018-04-27T11:35:34.754Z,52.23
2018-04-27T11:36:37.222Z,52.23
2018-04-27T11:37:39.708Z,52.23
2018-04-27T11:38:42.191Z,52.23
2018-04-27T11:39:44.692Z,52.23
2018-04-27T11:40:47.184Z,52.22
2018-04-27T11:41:49.669Z,52.21
2018-04-27T11:42:52.183Z,52.21
2018-04-27T11:43:54.674Z,52.20
2018-04-27T11:44:57.146Z,52.19
2018-04-27T11:45:59.652Z,52.19
2018-04-27T11:47:02.168Z,52.18
2018-04-27T11:48:04.677Z,52.16
2018-04-27T11:49:07.189Z,52.16
2018-04-27T11:50:09.680Z,52.16
2018-04-27T11:51:12.188Z,52.17
2018-04-27T11:52:14.695Z,52.15
2018-04-27T11:53:17.230Z,52.14
2018-04-27T11:54:19.713Z,52.14
2018-04-27T11:55:22.219Z,52.14
2018-04-27T11:56:24.708Z,52.13
2018-04-27T11:57:27.186Z,52.13
2018-04-27T11:58:29.708Z,52.12
2018-04-27T11:59:32.187Z,52.11
2018-04-27T12:00:34.666Z,52.11
2018-04-27T12:01:37.190Z,52.11
2018-04-27T12:02:39.673Z,52.14
2018-04-27T12:03:42.274Z,52.10
2018-04-27T12:04:44.699Z,52.10
2018-04-27T12:05:47.208Z,52.10
2018-04-27T12:06:49.693Z,52.09
2018-04-27T12:07:52.165Z,52.09
2018-04-27T12:08:54.654Z,52.08
2018-04-27T12:09:57.139Z,52.08
2018-04-27T12:10:59.614Z,52.08
2018-04-27T12:12:02.108Z,52.07
2018-04-27T12:13:04.656Z,52.06
2018-04-27T12:14:07.193Z,52.06
2018-04-27T12:15:09.667Z,52.06
2018-04-27T12:16:12.156Z,52.06
2018-04-27T12:17:14.663Z,52.06
2018-04-27T12:18:17.167Z,52.05
2018-04-27T12:19:19.654Z,52.05
2018-04-27T12:20:22.122Z,52.05
2018-04-27T12:21:24.628Z,52.04
2018-04-27T12:22:27.098Z,52.05
2018-04-27T12:23:29.584Z,52.04
2018-04-27T12:24:32.094Z,52.04
2018-04-27T12:25:34.582Z,52.04
2018-04-27T12:26:37.265Z,52.04
2018-04-27T12:27:39.753Z,52.03
2018-04-27T12:28:42.247Z,52.03
2018-04-27T12:29:44.753Z,52.03
2018-04-27T12:30:47.319Z,52.01
2018-04-27T12:31:49.837Z,52.03
2018-04-27T12:32:52.316Z,52.01
2018-04-27T12:33:54.899Z,52.00
2018-04-27T12:34:57.400Z,52.00
2018-04-27T12:35:59.916Z,52.00
2018-04-27T12:37:02.475Z,51.99
2018-04-27T12:38:04.981Z,51.99
2018-04-27T12:39:07.493Z,51.99
2018-04-27T12:40:10.013Z,51.99
2018-04-27T12:41:12.498Z,51.99
2018-04-27T12:42:15.005Z,51.99
2018-04-27T12:43:17.524Z,51.97
2018-04-27T12:44:20.057Z,51.98
2018-04-27T12:45:22.554Z,51.97
2018-04-27T12:46:25.044Z,51.96
2018-04-27T12:47:27.515Z,51.97
2018-04-27T12:48:29.996Z,51.96
2018-04-27T12:49:32.508Z,51.96
2018-04-27T12:50:35.012Z,51.95
2018-04-27T12:51:37.531Z,51.95
2018-04-27T12:52:40.030Z,51.95
2018-04-27T12:53:42.499Z,51.93
2018-04-27T12:54:45.010Z,51.93
2018-04-27T12:55:47.517Z,51.93
2018-04-27T12:56:50.013Z,51.92
2018-04-27T12:57:52.508Z,51.92
2018-04-27T12:58:55.009Z,51.92
2018-04-27T12:59:57.536Z,51.92
2018-04-27T13:01:00.105Z,51.92
2018-04-27T13:02:02.607Z,51.91
2018-04-27T13:03:05.074Z,51.91
2018-04-27T13:04:07.573Z,51.91
2018-04-27T13:05:10.063Z,51.91
2018-04-27T13:06:12.534Z,51.90
2018-04-27T13:07:15.061Z,51.90
2018-04-27T13:08:17.532Z,51.89
2018-04-27T13:09:20.035Z,51.90
2018-04-27T13:10:22.537Z,51.89
2018-04-27T13:11:25.014Z,51.90
2018-04-27T13:12:27.490Z,51.90
2018-04-27T13:13:29.988Z,51.90
2018-04-27T13:14:32.473Z,51.90
2018-04-27T13:15:34.991Z,51.90
2018-04-27T13:16:37.485Z,51.90
2018-04-27T13:17:39.959Z,51.90
2018-04-27T13:18:42.435Z,51.89
2018-04-27T13:19:44.973Z,51.89
2018-04-27T13:20:47.658Z,51.89
2018-04-27T13:21:50.160Z,51.89
2018-04-27T13:22:52.641Z,51.89
2018-04-27T13:23:55.215Z,51.87
2018-04-27T13:24:57.689Z,51.88
2018-04-27T13:26:00.185Z,51.88
2018-04-27T13:27:02.667Z,51.89